sensor_id;sensor_type;location;lat;lon;timestamp;temperature;humidity
7232;DHT22;3657;49.630;11.018;2022-11-21T00:01:00;3.70;99.90
7232;DHT22;3657;49.630;11.018;2022-11-21T00:03:28;3.70;99.90
7232;DHT22;3657;49.630;11.018;2022-11-21T00:05:54;3.70;99.90
7232;DHT22;3657;49.630;11.018;2022-11-21T00:08:22;3.70;99.90
7232;DHT22;3657;49.630;11.018;2022-11-21T00:10:49;3.70;99.90
7232;DHT22;3657;49.630;11.018;2022-11-21T00:13:19;3.70;99.90
7232;DHT22;3657;49.630;11.018;2022-11-21T00:15:46;3.70;99.90
7232;DHT22;3657;49.630;11.018;2022-11-21T00:18:13;3.70;99.90
7232;DHT22;3657;49.630;11.018;2022-11-21T00:20:42;3.70;99.90
7232;DHT22;3657;49.630;11.018;2022-11-21T00:23:09;3.70;99.90
7232;DHT22;3657;49.630;11.018;2022-11-21T00:25:36;3.70;99.90
7232;DHT22;3657;49.630;11.018;2022-11-21T00:28:04;3.70;99.90
7232;DHT22;3657;49.630;11.018;2022-11-21T00:30:31;3.70;99.90
7232;DHT22;3657;49.630;11.018;2022-11-21T00:32:58;3.80;99.90
7232;DHT22;3657;49.630;11.018;2022-11-21T00:35:24;3.80;99.90
7232;DHT22;3657;49.630;11.018;2022-11-21T00:37:52;3.80;99.90
7232;DHT22;3657;49.630;11.018;2022-11-21T00:40:19;3.80;99.90
7232;DHT22;3657;49.630;11.018;2022-11-21T00:42:46;3.80;99.90
7232;DHT22;3657;49.630;11.018;2022-11-21T00:45:13;3.80;99.90
7232;DHT22;3657;49.630;11.018;2022-11-21T00:47:39;3.80;99.90
7232;DHT22;3657;49.630;11.018;2022-11-21T00:50:08;3.80;99.90
7232;DHT22;3657;49.630;11.018;2022-11-21T00:52:34;3.80;99.90
7232;DHT22;3657;49.630;11.018;2022-11-21T00:55:03;3.90;99.90
7232;DHT22;3657;49.630;11.018;2022-11-21T00:57:30;3.90;99.90
7232;DHT22;3657;49.630;11.018;2022-11-21T00:59:56;3.90;99.90
7232;DHT22;3657;49.630;11.018;2022-11-21T01:02:23;3.90;99.90
7232;DHT22;3657;49.630;11.018;2022-11-21T01:04:50;3.90;99.90
7232;DHT22;3657;49.630;11.018;2022-11-21T01:07:16;3.90;99.90
7232;DHT22;3657;49.630;11.018;2022-11-21T01:09:43;3.90;99.90
7232;DHT22;3657;49.630;11.018;2022-11-21T01:12:11;3.90;99.90
7232;DHT22;3657;49.630;11.018;2022-11-21T01:14:38;4.00;99.90
7232;DHT22;3657;49.630;11.018;2022-11-21T01:17:04;4.00;99.90
7232;DHT22;3657;49.630;11.018;2022-11-21T01:19:31;4.00;99.90
7232;DHT22;3657;49.630;11.018;2022-11-21T01:21:58;4.00;99.90
7232;DHT22;3657;49.630;11.018;2022-11-21T01:24:25;4.00;99.90
7232;DHT22;3657;49.630;11.018;2022-11-21T01:26:52;4.00;99.90
7232;DHT22;3657;49.630;11.018;2022-11-21T01:29:21;4.00;99.90
7232;DHT22;3657;49.630;11.018;2022-11-21T01:31:48;4.00;99.90
7232;DHT22;3657;49.630;11.018;2022-11-21T01:34:15;4.00;99.90
7232;DHT22;3657;49.630;11.018;2022-11-21T01:36:43;4.10;99.90
7232;DHT22;3657;49.630;11.018;2022-11-21T01:39:10;4.10;99.90
7232;DHT22;3657;49.630;11.018;2022-11-21T01:41:39;4.10;99.90
7232;DHT22;3657;49.630;11.018;2022-11-21T01:44:14;4.10;99.90
7232;DHT22;3657;49.630;11.018;2022-11-21T01:46:43;4.10;99.90
7232;DHT22;3657;49.630;11.018;2022-11-21T01:49:12;4.20;99.90
7232;DHT22;3657;49.630;11.018;2022-11-21T01:51:42;4.20;99.90
7232;DHT22;3657;49.630;11.018;2022-11-21T01:54:12;4.20;99.90
7232;DHT22;3657;49.630;11.018;2022-11-21T01:56:42;4.20;99.90
7232;DHT22;3657;49.630;11.018;2022-11-21T01:59:14;4.20;99.90
7232;DHT22;3657;49.630;11.018;2022-11-21T02:01:45;4.20;99.90
7232;DHT22;3657;49.630;11.018;2022-11-21T02:04:13;4.20;99.90
7232;DHT22;3657;49.630;11.018;2022-11-21T02:06:41;4.20;99.90
7232;DHT22;3657;49.630;11.018;2022-11-21T02:09:07;4.20;99.90
7232;DHT22;3657;49.630;11.018;2022-11-21T02:11:37;4.20;99.90
7232;DHT22;3657;49.630;11.018;2022-11-21T02:14:06;4.20;99.90
7232;DHT22;3657;49.630;11.018;2022-11-21T02:16:33;4.20;99.90
7232;DHT22;3657;49.630;11.018;2022-11-21T02:19:02;4.20;99.90
7232;DHT22;3657;49.630;11.018;2022-11-21T02:21:37;4.20;99.90
7232;DHT22;3657;49.630;11.018;2022-11-21T02:24:10;4.20;99.90
7232;DHT22;3657;49.630;11.018;2022-11-21T02:26:40;4.30;99.90
7232;DHT22;3657;49.630;11.018;2022-11-21T02:29:06;4.30;99.90
7232;DHT22;3657;49.630;11.018;2022-11-21T02:31:33;4.20;99.90
7232;DHT22;3657;49.630;11.018;2022-11-21T02:34:00;4.20;99.90
7232;DHT22;3657;49.630;11.018;2022-11-21T02:36:35;4.20;99.90
7232;DHT22;3657;49.630;11.018;2022-11-21T02:39:04;4.30;99.90
7232;DHT22;3657;49.630;11.018;2022-11-21T02:41:33;4.30;99.90
7232;DHT22;3657;49.630;11.018;2022-11-21T02:44:05;4.30;99.90
7232;DHT22;3657;49.630;11.018;2022-11-21T02:46:34;4.30;99.90
7232;DHT22;3657;49.630;11.018;2022-11-21T02:49:03;4.30;99.90
7232;DHT22;3657;49.630;11.018;2022-11-21T02:51:31;4.30;99.90
7232;DHT22;3657;49.630;11.018;2022-11-21T02:53:58;4.30;99.90
7232;DHT22;3657;49.630;11.018;2022-11-21T02:56:25;4.30;99.90
7232;DHT22;3657;49.630;11.018;2022-11-21T02:58:51;4.30;99.90
7232;DHT22;3657;49.630;11.018;2022-11-21T03:01:20;4.30;99.90
7232;DHT22;3657;49.630;11.018;2022-11-21T03:03:46;4.30;99.90
7232;DHT22;3657;49.630;11.018;2022-11-21T03:06:13;4.30;99.90
7232;DHT22;3657;49.630;11.018;2022-11-21T03:08:40;4.30;99.90
7232;DHT22;3657;49.630;11.018;2022-11-21T03:11:06;4.30;99.90
7232;DHT22;3657;49.630;11.018;2022-11-21T03:13:33;4.30;99.90
7232;DHT22;3657;49.630;11.018;2022-11-21T03:16:00;4.30;99.90
7232;DHT22;3657;49.630;11.018;2022-11-21T03:18:28;4.30;99.90
7232;DHT22;3657;49.630;11.018;2022-11-21T03:20:56;4.30;99.90
7232;DHT22;3657;49.630;11.018;2022-11-21T03:23:22;4.30;99.90
7232;DHT22;3657;49.630;11.018;2022-11-21T03:25:49;4.30;99.90
7232;DHT22;3657;49.630;11.018;2022-11-21T03:28:16;4.30;99.90
7232;DHT22;3657;49.630;11.018;2022-11-21T03:30:42;4.30;99.90
7232;DHT22;3657;49.630;11.018;2022-11-21T03:33:09;4.30;99.90
7232;DHT22;3657;49.630;11.018;2022-11-21T03:35:37;4.30;99.90
7232;DHT22;3657;49.630;11.018;2022-11-21T03:38:04;4.30;99.90
7232;DHT22;3657;49.630;11.018;2022-11-21T03:40:31;4.20;99.90
7232;DHT22;3657;49.630;11.018;2022-11-21T03:43:03;4.30;99.90
7232;DHT22;3657;49.630;11.018;2022-11-21T03:45:29;4.30;99.90
7232;DHT22;3657;49.630;11.018;2022-11-21T03:47:56;4.30;99.90
7232;DHT22;3657;49.630;11.018;2022-11-21T03:50:23;4.30;99.90
7232;DHT22;3657;49.630;11.018;2022-11-21T03:52:51;4.30;99.90
7232;DHT22;3657;49.630;11.018;2022-11-21T03:55:17;4.30;99.90
7232;DHT22;3657;49.630;11.018;2022-11-21T03:57:44;4.30;99.90
7232;DHT22;3657;49.630;11.018;2022-11-21T04:00:12;4.30;99.90
7232;DHT22;3657;49.630;11.018;2022-11-21T04:02:39;4.30;99.90
7232;DHT22;3657;49.630;11.018;2022-11-21T04:05:06;4.30;99.90
7232;DHT22;3657;49.630;11.018;2022-11-21T04:07:33;4.30;99.90
7232;DHT22;3657;49.630;11.018;2022-11-21T04:10:01;4.30;99.90
7232;DHT22;3657;49.630;11.018;2022-11-21T04:12:27;4.40;99.90
7232;DHT22;3657;49.630;11.018;2022-11-21T04:14:54;4.40;99.90
7232;DHT22;3657;49.630;11.018;2022-11-21T04:17:21;4.40;99.90
7232;DHT22;3657;49.630;11.018;2022-11-21T04:19:47;4.40;99.90
7232;DHT22;3657;49.630;11.018;2022-11-21T04:22:14;4.40;99.90
7232;DHT22;3657;49.630;11.018;2022-11-21T04:24:41;4.40;99.90
7232;DHT22;3657;49.630;11.018;2022-11-21T04:27:09;4.40;99.90
7232;DHT22;3657;49.630;11.018;2022-11-21T04:29:35;4.40;99.90
7232;DHT22;3657;49.630;11.018;2022-11-21T04:32:02;4.40;99.90
7232;DHT22;3657;49.630;11.018;2022-11-21T04:34:29;4.40;99.90
7232;DHT22;3657;49.630;11.018;2022-11-21T04:36:56;4.40;99.90
7232;DHT22;3657;49.630;11.018;2022-11-21T04:39:22;4.40;99.90
7232;DHT22;3657;49.630;11.018;2022-11-21T04:41:49;4.40;99.90
7232;DHT22;3657;49.630;11.018;2022-11-21T04:44:17;4.40;99.90
7232;DHT22;3657;49.630;11.018;2022-11-21T04:46:44;4.40;99.90
7232;DHT22;3657;49.630;11.018;2022-11-21T04:49:10;4.40;99.90
7232;DHT22;3657;49.630;11.018;2022-11-21T04:51:37;4.40;99.90
7232;DHT22;3657;49.630;11.018;2022-11-21T04:54:04;4.50;99.90
7232;DHT22;3657;49.630;11.018;2022-11-21T04:56:31;4.50;99.90
7232;DHT22;3657;49.630;11.018;2022-11-21T04:58:57;4.50;99.90
7232;DHT22;3657;49.630;11.018;2022-11-21T05:01:25;4.50;99.90
7232;DHT22;3657;49.630;11.018;2022-11-21T05:03:52;4.50;99.90
7232;DHT22;3657;49.630;11.018;2022-11-21T05:06:19;4.50;99.90
7232;DHT22;3657;49.630;11.018;2022-11-21T05:08:45;4.50;99.90
7232;DHT22;3657;49.630;11.018;2022-11-21T05:11:12;4.50;99.90
7232;DHT22;3657;49.630;11.018;2022-11-21T05:13:56;4.50;99.90
7232;DHT22;3657;49.630;11.018;2022-11-21T05:16:24;4.50;99.90
7232;DHT22;3657;49.630;11.018;2022-11-21T05:18:51;4.50;99.90
7232;DHT22;3657;49.630;11.018;2022-11-21T05:21:17;4.50;99.90
7232;DHT22;3657;49.630;11.018;2022-11-21T05:23:44;4.50;99.90
7232;DHT22;3657;49.630;11.018;2022-11-21T05:26:11;4.50;99.90
7232;DHT22;3657;49.630;11.018;2022-11-21T05:28:37;4.50;99.90
7232;DHT22;3657;49.630;11.018;2022-11-21T05:31:04;4.50;99.90
7232;DHT22;3657;49.630;11.018;2022-11-21T05:33:32;4.50;99.90
7232;DHT22;3657;49.630;11.018;2022-11-21T05:35:59;4.50;99.90
7232;DHT22;3657;49.630;11.018;2022-11-21T05:38:25;4.50;99.90
7232;DHT22;3657;49.630;11.018;2022-11-21T05:40:52;4.50;99.90
7232;DHT22;3657;49.630;11.018;2022-11-21T05:43:19;4.50;99.90
7232;DHT22;3657;49.630;11.018;2022-11-21T05:46:03;4.50;99.90
7232;DHT22;3657;49.630;11.018;2022-11-21T05:48:31;4.50;99.90
7232;DHT22;3657;49.630;11.018;2022-11-21T05:50:58;4.50;99.90
7232;DHT22;3657;49.630;11.018;2022-11-21T05:53:25;4.50;99.90
7232;DHT22;3657;49.630;11.018;2022-11-21T05:55:52;4.50;99.90
7232;DHT22;3657;49.630;11.018;2022-11-21T05:58:18;4.50;99.90
7232;DHT22;3657;49.630;11.018;2022-11-21T06:00:45;4.50;99.90
7232;DHT22;3657;49.630;11.018;2022-11-21T06:03:12;4.50;99.90
7232;DHT22;3657;49.630;11.018;2022-11-21T06:05:59;4.50;99.90
7232;DHT22;3657;49.630;11.018;2022-11-21T06:08:29;4.50;99.90
7232;DHT22;3657;49.630;11.018;2022-11-21T06:10:56;4.50;99.90
7232;DHT22;3657;49.630;11.018;2022-11-21T06:13:23;4.50;99.90
7232;DHT22;3657;49.630;11.018;2022-11-21T06:15:51;4.50;99.90
7232;DHT22;3657;49.630;11.018;2022-11-21T06:18:18;4.50;99.90
7232;DHT22;3657;49.630;11.018;2022-11-21T06:20:45;4.50;99.90
7232;DHT22;3657;49.630;11.018;2022-11-21T06:23:13;4.50;99.90
7232;DHT22;3657;49.630;11.018;2022-11-21T06:25:40;4.50;99.90
7232;DHT22;3657;49.630;11.018;2022-11-21T06:28:07;4.50;99.90
7232;DHT22;3657;49.630;11.018;2022-11-21T06:30:34;4.50;99.90
7232;DHT22;3657;49.630;11.018;2022-11-21T06:33:03;4.50;99.90
7232;DHT22;3657;49.630;11.018;2022-11-21T06:35:30;4.50;99.90
7232;DHT22;3657;49.630;11.018;2022-11-21T06:37:57;4.50;99.90
7232;DHT22;3657;49.630;11.018;2022-11-21T06:40:25;4.40;99.90
7232;DHT22;3657;49.630;11.018;2022-11-21T06:42:51;4.40;99.90
7232;DHT22;3657;49.630;11.018;2022-11-21T06:45:18;4.50;99.90
7232;DHT22;3657;49.630;11.018;2022-11-21T06:47:45;4.50;99.90
7232;DHT22;3657;49.630;11.018;2022-11-21T06:50:11;4.50;99.90
7232;DHT22;3657;49.630;11.018;2022-11-21T06:52:38;4.40;99.90
7232;DHT22;3657;49.630;11.018;2022-11-21T06:55:05;4.50;99.90
7232;DHT22;3657;49.630;11.018;2022-11-21T06:57:34;4.50;99.90
7232;DHT22;3657;49.630;11.018;2022-11-21T07:00:00;4.50;99.90
7232;DHT22;3657;49.630;11.018;2022-11-21T07:02:27;4.50;99.90
7232;DHT22;3657;49.630;11.018;2022-11-21T07:04:54;4.50;99.90
7232;DHT22;3657;49.630;11.018;2022-11-21T07:07:20;4.40;99.90
7232;DHT22;3657;49.630;11.018;2022-11-21T07:09:47;4.50;99.90
7232;DHT22;3657;49.630;11.018;2022-11-21T07:12:14;4.50;99.90
7232;DHT22;3657;49.630;11.018;2022-11-21T07:14:59;4.50;99.90
7232;DHT22;3657;49.630;11.018;2022-11-21T07:17:26;4.50;99.90
7232;DHT22;3657;49.630;11.018;2022-11-21T07:19:52;4.50;99.90
7232;DHT22;3657;49.630;11.018;2022-11-21T07:22:19;4.50;99.90
7232;DHT22;3657;49.630;11.018;2022-11-21T07:24:46;4.50;99.90
7232;DHT22;3657;49.630;11.018;2022-11-21T07:27:12;4.50;99.90
7232;DHT22;3657;49.630;11.018;2022-11-21T07:29:39;4.50;99.90
7232;DHT22;3657;49.630;11.018;2022-11-21T07:32:07;4.50;99.90
7232;DHT22;3657;49.630;11.018;2022-11-21T07:34:34;4.50;99.90
7232;DHT22;3657;49.630;11.018;2022-11-21T07:37:01;4.50;99.90
7232;DHT22;3657;49.630;11.018;2022-11-21T07:39:27;4.60;99.90
7232;DHT22;3657;49.630;11.018;2022-11-21T07:41:54;4.60;99.90
7232;DHT22;3657;49.630;11.018;2022-11-21T07:44:21;4.60;99.90
7232;DHT22;3657;49.630;11.018;2022-11-21T07:46:48;4.60;99.90
7232;DHT22;3657;49.630;11.018;2022-11-21T07:49:16;4.60;99.90
7232;DHT22;3657;49.630;11.018;2022-11-21T07:51:42;4.60;99.90
7232;DHT22;3657;49.630;11.018;2022-11-21T07:54:09;4.60;99.90
7232;DHT22;3657;49.630;11.018;2022-11-21T07:56:36;4.70;99.90
7232;DHT22;3657;49.630;11.018;2022-11-21T07:59:02;4.70;99.90
7232;DHT22;3657;49.630;11.018;2022-11-21T08:01:29;4.80;99.90
7232;DHT22;3657;49.630;11.018;2022-11-21T08:03:56;4.80;99.90
7232;DHT22;3657;49.630;11.018;2022-11-21T08:06:24;4.80;99.90
7232;DHT22;3657;49.630;11.018;2022-11-21T08:08:51;4.80;99.90
7232;DHT22;3657;49.630;11.018;2022-11-21T08:11:19;4.80;99.90
7232;DHT22;3657;49.630;11.018;2022-11-21T08:13:45;4.80;99.90
7232;DHT22;3657;49.630;11.018;2022-11-21T08:16:12;4.90;99.90
7232;DHT22;3657;49.630;11.018;2022-11-21T08:18:39;4.90;99.90
7232;DHT22;3657;49.630;11.018;2022-11-21T08:21:05;4.90;99.90
7232;DHT22;3657;49.630;11.018;2022-11-21T08:23:34;5.00;99.90
7232;DHT22;3657;49.630;11.018;2022-11-21T08:26:00;5.00;99.90
7232;DHT22;3657;49.630;11.018;2022-11-21T08:28:27;5.00;99.90
7232;DHT22;3657;49.630;11.018;2022-11-21T08:30:54;5.00;99.90
7232;DHT22;3657;49.630;11.018;2022-11-21T08:33:20;5.00;99.90
7232;DHT22;3657;49.630;11.018;2022-11-21T08:35:47;5.00;99.90
7232;DHT22;3657;49.630;11.018;2022-11-21T08:38:14;5.00;99.90
7232;DHT22;3657;49.630;11.018;2022-11-21T08:40:42;5.00;99.90
7232;DHT22;3657;49.630;11.018;2022-11-21T08:43:08;5.10;99.90
7232;DHT22;3657;49.630;11.018;2022-11-21T08:45:36;5.20;99.90
7232;DHT22;3657;49.630;11.018;2022-11-21T08:48:08;5.20;99.90
7232;DHT22;3657;49.630;11.018;2022-11-21T08:50:35;5.30;99.90
7232;DHT22;3657;49.630;11.018;2022-11-21T08:53:02;5.30;99.90
7232;DHT22;3657;49.630;11.018;2022-11-21T08:55:29;5.30;99.90
7232;DHT22;3657;49.630;11.018;2022-11-21T08:57:57;5.30;99.90
7232;DHT22;3657;49.630;11.018;2022-11-21T09:00:24;5.30;99.90
7232;DHT22;3657;49.630;11.018;2022-11-21T09:02:51;5.30;99.90
7232;DHT22;3657;49.630;11.018;2022-11-21T09:05:17;5.30;99.90
7232;DHT22;3657;49.630;11.018;2022-11-21T09:07:44;5.30;99.90
7232;DHT22;3657;49.630;11.018;2022-11-21T09:10:11;5.30;99.90
7232;DHT22;3657;49.630;11.018;2022-11-21T09:12:37;5.30;99.90
7232;DHT22;3657;49.630;11.018;2022-11-21T09:15:08;5.30;99.90
7232;DHT22;3657;49.630;11.018;2022-11-21T09:17:52;5.30;99.90
7232;DHT22;3657;49.630;11.018;2022-11-21T09:20:37;5.30;99.90
7232;DHT22;3657;49.630;11.018;2022-11-21T09:23:05;5.30;99.90
7232;DHT22;3657;49.630;11.018;2022-11-21T09:25:31;5.30;99.90
7232;DHT22;3657;49.630;11.018;2022-11-21T09:27:58;5.30;99.90
7232;DHT22;3657;49.630;11.018;2022-11-21T09:30:27;5.40;99.90
7232;DHT22;3657;49.630;11.018;2022-11-21T09:32:59;5.40;99.90
7232;DHT22;3657;49.630;11.018;2022-11-21T09:35:26;5.40;99.90
7232;DHT22;3657;49.630;11.018;2022-11-21T09:37:53;5.40;99.90
7232;DHT22;3657;49.630;11.018;2022-11-21T09:40:20;5.50;99.90
7232;DHT22;3657;49.630;11.018;2022-11-21T09:42:59;5.40;99.90
7232;DHT22;3657;49.630;11.018;2022-11-21T09:45:32;5.40;99.90
7232;DHT22;3657;49.630;11.018;2022-11-21T09:48:02;5.40;99.90
7232;DHT22;3657;49.630;11.018;2022-11-21T09:50:31;5.40;99.90
7232;DHT22;3657;49.630;11.018;2022-11-21T09:53:02;5.50;99.90
7232;DHT22;3657;49.630;11.018;2022-11-21T09:55:38;5.50;99.90
7232;DHT22;3657;49.630;11.018;2022-11-21T09:58:15;5.50;99.90
7232;DHT22;3657;49.630;11.018;2022-11-21T10:00:45;5.50;99.90
7232;DHT22;3657;49.630;11.018;2022-11-21T10:03:12;5.50;99.90
7232;DHT22;3657;49.630;11.018;2022-11-21T10:05:44;5.50;99.90
7232;DHT22;3657;49.630;11.018;2022-11-21T10:08:17;5.60;99.90
7232;DHT22;3657;49.630;11.018;2022-11-21T10:10:53;5.50;99.90
7232;DHT22;3657;49.630;11.018;2022-11-21T10:13:31;5.50;99.90
7232;DHT22;3657;49.630;11.018;2022-11-21T10:16:10;5.50;99.90
7232;DHT22;3657;49.630;11.018;2022-11-21T10:18:58;5.50;99.90
7232;DHT22;3657;49.630;11.018;2022-11-21T10:21:51;5.50;99.90
7232;DHT22;3657;49.630;11.018;2022-11-21T10:24:32;5.60;99.90
7232;DHT22;3657;49.630;11.018;2022-11-21T10:27:05;5.50;99.90
7232;DHT22;3657;49.630;11.018;2022-11-21T10:29:38;5.60;99.90
7232;DHT22;3657;49.630;11.018;2022-11-21T10:32:14;5.60;99.90
7232;DHT22;3657;49.630;11.018;2022-11-21T10:34:45;5.70;99.90
7232;DHT22;3657;49.630;11.018;2022-11-21T10:37:15;5.70;99.90
7232;DHT22;3657;49.630;11.018;2022-11-21T10:39:48;5.80;99.90
7232;DHT22;3657;49.630;11.018;2022-11-21T10:42:26;5.80;99.90
7232;DHT22;3657;49.630;11.018;2022-11-21T10:44:53;5.80;99.90
7232;DHT22;3657;49.630;11.018;2022-11-21T10:47:39;5.90;99.90
7232;DHT22;3657;49.630;11.018;2022-11-21T10:50:17;5.90;99.90
7232;DHT22;3657;49.630;11.018;2022-11-21T10:52:48;5.90;99.90
7232;DHT22;3657;49.630;11.018;2022-11-21T10:55:16;5.90;99.90
7232;DHT22;3657;49.630;11.018;2022-11-21T10:57:45;5.90;99.90
7232;DHT22;3657;49.630;11.018;2022-11-21T11:00:21;5.80;99.90
7232;DHT22;3657;49.630;11.018;2022-11-21T11:03:01;5.80;99.90
7232;DHT22;3657;49.630;11.018;2022-11-21T11:05:30;5.80;99.90
7232;DHT22;3657;49.630;11.018;2022-11-21T11:07:59;5.90;99.90
7232;DHT22;3657;49.630;11.018;2022-11-21T11:10:27;5.90;99.90
7232;DHT22;3657;49.630;11.018;2022-11-21T11:12:55;6.00;99.90
7232;DHT22;3657;49.630;11.018;2022-11-21T11:15:52;6.00;99.90
7232;DHT22;3657;49.630;11.018;2022-11-21T11:18:21;6.00;99.90
7232;DHT22;3657;49.630;11.018;2022-11-21T11:20:49;6.10;99.90
7232;DHT22;3657;49.630;11.018;2022-11-21T11:23:24;6.00;99.90
7232;DHT22;3657;49.630;11.018;2022-11-21T11:25:52;6.00;99.90
7232;DHT22;3657;49.630;11.018;2022-11-21T11:28:20;6.00;99.90
7232;DHT22;3657;49.630;11.018;2022-11-21T11:30:49;6.00;99.90
7232;DHT22;3657;49.630;11.018;2022-11-21T11:33:29;6.00;99.90
7232;DHT22;3657;49.630;11.018;2022-11-21T11:36:01;6.00;99.90
7232;DHT22;3657;49.630;11.018;2022-11-21T11:38:29;6.00;99.90
7232;DHT22;3657;49.630;11.018;2022-11-21T11:40:59;6.00;99.90
7232;DHT22;3657;49.630;11.018;2022-11-21T11:43:34;6.00;99.90
7232;DHT22;3657;49.630;11.018;2022-11-21T11:46:30;6.00;99.90
7232;DHT22;3657;49.630;11.018;2022-11-21T11:49:26;6.00;99.90
7232;DHT22;3657;49.630;11.018;2022-11-21T11:51:59;6.10;99.90
7232;DHT22;3657;49.630;11.018;2022-11-21T11:54:34;6.10;99.90
7232;DHT22;3657;49.630;11.018;2022-11-21T11:57:07;6.20;99.90
7232;DHT22;3657;49.630;11.018;2022-11-21T11:59:37;6.30;99.90
7232;DHT22;3657;49.630;11.018;2022-11-21T12:02:12;6.30;99.90
7232;DHT22;3657;49.630;11.018;2022-11-21T12:04:50;6.30;99.90
7232;DHT22;3657;49.630;11.018;2022-11-21T12:07:21;6.40;99.90
7232;DHT22;3657;49.630;11.018;2022-11-21T12:09:55;6.40;99.90
7232;DHT22;3657;49.630;11.018;2022-11-21T12:12:31;6.30;99.90
7232;DHT22;3657;49.630;11.018;2022-11-21T12:15:09;6.30;99.90
7232;DHT22;3657;49.630;11.018;2022-11-21T12:18:10;6.40;99.90
7232;DHT22;3657;49.630;11.018;2022-11-21T12:20:47;6.50;99.90
7232;DHT22;3657;49.630;11.018;2022-11-21T12:23:16;6.70;99.90
7232;DHT22;3657;49.630;11.018;2022-11-21T12:25:50;6.80;99.90
7232;DHT22;3657;49.630;11.018;2022-11-21T12:28:25;6.80;99.90
7232;DHT22;3657;49.630;11.018;2022-11-21T12:31:01;6.90;99.90
7232;DHT22;3657;49.630;11.018;2022-11-21T12:33:31;6.90;99.90
7232;DHT22;3657;49.630;11.018;2022-11-21T12:36:13;6.90;99.90
7232;DHT22;3657;49.630;11.018;2022-11-21T12:38:52;6.90;99.90
7232;DHT22;3657;49.630;11.018;2022-11-21T12:41:27;6.90;99.90
7232;DHT22;3657;49.630;11.018;2022-11-21T12:44:30;7.00;99.90
7232;DHT22;3657;49.630;11.018;2022-11-21T12:47:10;7.00;99.90
7232;DHT22;3657;49.630;11.018;2022-11-21T12:49:43;7.00;99.90
7232;DHT22;3657;49.630;11.018;2022-11-21T12:52:33;7.10;99.90
7232;DHT22;3657;49.630;11.018;2022-11-21T12:55:30;7.10;99.90
7232;DHT22;3657;49.630;11.018;2022-11-21T12:58:08;7.10;99.90
7232;DHT22;3657;49.630;11.018;2022-11-21T13:00:45;7.10;99.90
7232;DHT22;3657;49.630;11.018;2022-11-21T13:03:30;7.20;99.90
7232;DHT22;3657;49.630;11.018;2022-11-21T13:06:00;7.30;99.90
7232;DHT22;3657;49.630;11.018;2022-11-21T13:08:31;7.30;99.90
7232;DHT22;3657;49.630;11.018;2022-11-21T13:11:05;7.40;99.90
7232;DHT22;3657;49.630;11.018;2022-11-21T13:13:58;7.40;99.90
7232;DHT22;3657;49.630;11.018;2022-11-21T13:16:28;7.40;99.90
7232;DHT22;3657;49.630;11.018;2022-11-21T13:19:14;7.50;99.90
7232;DHT22;3657;49.630;11.018;2022-11-21T13:21:43;7.50;99.90
7232;DHT22;3657;49.630;11.018;2022-11-21T13:27:29;7.50;99.90
7232;DHT22;3657;49.630;11.018;2022-11-21T13:30:15;7.60;99.90
7232;DHT22;3657;49.630;11.018;2022-11-21T13:32:43;7.60;99.90
7232;DHT22;3657;49.630;11.018;2022-11-21T13:38:28;7.60;99.90
7232;DHT22;3657;49.630;11.018;2022-11-21T13:40:54;7.60;99.90
7232;DHT22;3657;49.630;11.018;2022-11-21T13:43:40;7.70;99.90
7232;DHT22;3657;49.630;11.018;2022-11-21T13:46:07;7.70;99.90
7232;DHT22;3657;49.630;11.018;2022-11-21T13:48:52;7.70;99.90
7232;DHT22;3657;49.630;11.018;2022-11-21T13:51:48;7.70;99.90
7232;DHT22;3657;49.630;11.018;2022-11-21T13:54:39;7.80;99.90
7232;DHT22;3657;49.630;11.018;2022-11-21T13:57:18;7.80;99.90
7232;DHT22;3657;49.630;11.018;2022-11-21T14:00:02;8.00;99.90
7232;DHT22;3657;49.630;11.018;2022-11-21T14:08:30;8.20;99.90
7232;DHT22;3657;49.630;11.018;2022-11-21T14:10:57;8.20;99.90
7232;DHT22;3657;49.630;11.018;2022-11-21T14:13:27;8.30;99.90
7232;DHT22;3657;49.630;11.018;2022-11-21T14:16:06;8.30;99.90
7232;DHT22;3657;49.630;11.018;2022-11-21T14:18:35;8.20;99.90
7232;DHT22;3657;49.630;11.018;2022-11-21T14:21:04;8.10;99.90
7232;DHT22;3657;49.630;11.018;2022-11-21T14:23:33;8.10;99.90
7232;DHT22;3657;49.630;11.018;2022-11-21T14:26:02;8.00;99.90
7232;DHT22;3657;49.630;11.018;2022-11-21T14:28:32;8.00;99.90
7232;DHT22;3657;49.630;11.018;2022-11-21T14:31:01;8.10;99.90
7232;DHT22;3657;49.630;11.018;2022-11-21T14:33:30;8.00;99.90
7232;DHT22;3657;49.630;11.018;2022-11-21T14:36:03;8.00;99.90
7232;DHT22;3657;49.630;11.018;2022-11-21T14:38:34;7.90;99.90
7232;DHT22;3657;49.630;11.018;2022-11-21T14:41:23;7.90;99.90
7232;DHT22;3657;49.630;11.018;2022-11-21T14:46:44;7.90;99.90
7232;DHT22;3657;49.630;11.018;2022-11-21T14:49:19;7.90;99.90
7232;DHT22;3657;49.630;11.018;2022-11-21T14:51:48;7.80;99.90
7232;DHT22;3657;49.630;11.018;2022-11-21T14:54:18;7.80;99.90
7232;DHT22;3657;49.630;11.018;2022-11-21T14:56:54;7.80;99.90
7232;DHT22;3657;49.630;11.018;2022-11-21T14:59:23;7.70;99.90
7232;DHT22;3657;49.630;11.018;2022-11-21T15:01:58;7.60;99.90
7232;DHT22;3657;49.630;11.018;2022-11-21T15:04:27;7.60;99.90
7232;DHT22;3657;49.630;11.018;2022-11-21T15:06:54;7.50;99.90
7232;DHT22;3657;49.630;11.018;2022-11-21T15:09:20;7.40;99.90
7232;DHT22;3657;49.630;11.018;2022-11-21T15:11:50;7.30;99.90
7232;DHT22;3657;49.630;11.018;2022-11-21T15:14:21;7.30;99.90
7232;DHT22;3657;49.630;11.018;2022-11-21T15:16:51;7.20;99.90
7232;DHT22;3657;49.630;11.018;2022-11-21T15:19:22;7.10;99.90
7232;DHT22;3657;49.630;11.018;2022-11-21T15:21:50;7.00;99.90
7232;DHT22;3657;49.630;11.018;2022-11-21T15:24:26;7.00;99.90
7232;DHT22;3657;49.630;11.018;2022-11-21T15:26:54;7.00;99.90
7232;DHT22;3657;49.630;11.018;2022-11-21T15:29:21;7.00;99.90
7232;DHT22;3657;49.630;11.018;2022-11-21T15:32:06;7.00;99.90
7232;DHT22;3657;49.630;11.018;2022-11-21T15:34:35;6.90;99.90
7232;DHT22;3657;49.630;11.018;2022-11-21T15:37:03;6.90;99.90
7232;DHT22;3657;49.630;11.018;2022-11-21T15:39:33;6.90;99.90
7232;DHT22;3657;49.630;11.018;2022-11-21T15:42:34;6.90;99.90
7232;DHT22;3657;49.630;11.018;2022-11-21T15:45:18;6.80;99.90
7232;DHT22;3657;49.630;11.018;2022-11-21T15:47:46;6.60;99.90
7232;DHT22;3657;49.630;11.018;2022-11-21T15:50:14;6.40;99.90
7232;DHT22;3657;49.630;11.018;2022-11-21T15:52:44;6.40;99.90
7232;DHT22;3657;49.630;11.018;2022-11-21T15:55:17;6.30;99.90
7232;DHT22;3657;49.630;11.018;2022-11-21T15:57:44;6.30;99.90
7232;DHT22;3657;49.630;11.018;2022-11-21T16:00:11;6.40;99.90
7232;DHT22;3657;49.630;11.018;2022-11-21T16:02:38;6.40;99.90
7232;DHT22;3657;49.630;11.018;2022-11-21T16:05:05;6.40;99.90
7232;DHT22;3657;49.630;11.018;2022-11-21T16:07:33;6.40;99.90
7232;DHT22;3657;49.630;11.018;2022-11-21T16:10:00;6.40;99.90
7232;DHT22;3657;49.630;11.018;2022-11-21T16:12:26;6.40;99.90
7232;DHT22;3657;49.630;11.018;2022-11-21T16:14:53;6.40;99.90
7232;DHT22;3657;49.630;11.018;2022-11-21T16:17:20;6.30;99.90
7232;DHT22;3657;49.630;11.018;2022-11-21T16:19:46;6.30;99.90
7232;DHT22;3657;49.630;11.018;2022-11-21T16:22:13;6.30;99.90
7232;DHT22;3657;49.630;11.018;2022-11-21T16:24:42;6.20;99.90
7232;DHT22;3657;49.630;11.018;2022-11-21T16:27:09;6.10;99.90
7232;DHT22;3657;49.630;11.018;2022-11-21T16:29:35;6.10;99.90
7232;DHT22;3657;49.630;11.018;2022-11-21T16:32:02;6.00;99.90
7232;DHT22;3657;49.630;11.018;2022-11-21T16:34:29;6.00;99.90
7232;DHT22;3657;49.630;11.018;2022-11-21T16:36:57;6.00;99.90